Météo Nord-Pas-de-Calais   La météo au plus près de chez vous

Station météorologique

Observations météo à Chastreix (63098)

63098001 1385 m Dernier relevé à 12:24
16.1°C
Humidité 54 % Vent 5.8 km/h

Journée consultée

Mercredi 2 Septembre 2026

Synthèse de la journée

Périodes de référence en UTC

Température maximale

16.1°C

à 12:18

06h 06h

Température minimale

11.5°C

à 03:00

18h 18h

Rafale maximale

22 km/h

à 06:42

00h 00h

Précipitations

0 mm

Cumul quotidien

06h 06h

Ensoleillement

3h 17 mins

Durée quotidienne

00h 00h

Graphiques de la journée

Heure locale Réduire

Données détaillées

Relevés météo

Pas de 6 minutes Afficher les relevés infra-horaires
Relevés météo détaillés à Chastreix pour le Mercredi 2 Septembre 2026
Heure Température °C Point de rosée °C Humidité % Vent moyen (raf.), km/h Précipitations mm Hauteur neige cm Ensoleillement min Rayonnement global W/m²
12:24 16.1 °C 6.5 °C 53 % 10 km/h (21 km/h) 0 mm0 mm 0 cm 6 min 284.8 W/m²
12:18 16.1 °C 7 °C 55 % 10 km/h (21 km/h) 0 mm0 mm 0 cm 6 min 283 W/m²
12:12 16 °C 7.5 °C 57 % 9 km/h (15 km/h) 0 mm0 mm 0 cm 6 min 276.2 W/m²
12:06 15.9 °C 7.6 °C 58 % 8 km/h (15 km/h) 0 mm0 mm 0 cm 6 min 268.3 W/m²
12:00 15.6 °C 6.3 °C 54 % 7 km/h (15 km/h) 0 mm0 mm 0 cm 6 min 269.1 W/m²
11:54 15.7 °C 6.7 °C 55 % 6 km/h (14 km/h) 0 mm0 mm 0 cm 6 min 252.3 W/m²
11:48 15.6 °C 6.6 °C 55 % 6 km/h (14 km/h) 0 mm0 mm 0 cm 6 min 236.8 W/m²
11:42 15.4 °C 5 °C 50 % 7 km/h (14 km/h) 0 mm0 mm 0 cm 6 min 230.3 W/m²
11:36 15.3 °C 6.6 °C 56 % 7 km/h (12 km/h) 0 mm0 mm 0 cm 6 min 222.6 W/m²
11:30 15.6 °C 5.5 °C 51 % 6 km/h (12 km/h) 0 mm0 mm 0 cm 6 min 223.3 W/m²
11:24 15.4 °C 6.1 °C 54 % 6 km/h (12 km/h) 0 mm0 mm 0 cm 6 min 226.1 W/m²
11:18 15.3 °C 6 °C 54 % 6 km/h (12 km/h) 0 mm0 mm 0 cm 6 min 228.3 W/m²
11:12 15.1 °C 9.2 °C 68 % 6 km/h (11 km/h) 0 mm0 mm 0 cm 6 min 244.8 W/m²
11:06 15.3 °C 9.6 °C 69 % 6 km/h (13 km/h) 0 mm0 mm 0 cm 6 min 241.4 W/m²
11:00 14.8 °C 8.5 °C 66 % 6 km/h (13 km/h) 0 mm0 mm 0 cm 6 min 233.6 W/m²
10:54 14.7 °C 9.7 °C 72 % 6 km/h (12 km/h) 0 mm0 mm 0 cm 6 min 232.2 W/m²
10:48 14.4 °C 9.8 °C 74 % 8 km/h (12 km/h) 0 mm0 mm 0 cm 6 min 181.2 W/m²
10:42 14.6 °C 10 °C 74 % 8 km/h (13 km/h) 0 mm0 mm 0 cm 6 min 175.5 W/m²
10:36 14.6 °C 9.2 °C 70 % 9 km/h (14 km/h) 0 mm0 mm 0 cm 6 min 197.5 W/m²
10:30 14.6 °C 9.4 °C 71 % 9 km/h (14 km/h) 0 mm0 mm 0 cm 6 min 215.8 W/m²
10:24 14.6 °C 9 °C 69 % 8 km/h (14 km/h) 0 mm0 mm 0 cm 6 min 250.5 W/m²
10:18 14.6 °C 10 °C 74 % 7 km/h (12 km/h) 0 mm0 mm 0 cm 6 min 195.6 W/m²
10:12 14.4 °C 9.6 °C 73 % 8 km/h (14 km/h) 0 mm0 mm 0 cm 6 min 184.9 W/m²
10:06 14.6 °C 10 °C 74 % 8 km/h (14 km/h) 0 mm0 mm 0 cm 6 min 191.1 W/m²
10:00 14.9 °C 10.7 °C 76 % 7 km/h (14 km/h) 0 mm0 mm 0 cm 6 min 218.8 W/m²
09:54 14.6 °C 10.4 °C 76 % 7 km/h (14 km/h) 0 mm0 mm 0 cm 6 min 213.4 W/m²
09:48 14.4 °C 10.4 °C 77 % 5 km/h (12 km/h) 0 mm0 mm 0 cm 6 min 177.8 W/m²
09:42 14.1 °C 10.1 °C 77 % 5 km/h (9 km/h) 0 mm0 mm 0 cm 6 min 135 W/m²
09:36 13.9 °C 9.9 °C 77 % 6 km/h (10 km/h) 0 mm0 mm 0 cm 6 min 127.6 W/m²
09:30 13.7 °C 9.7 °C 77 % 6 km/h (11 km/h) 0 mm0 mm 0 cm 6 min 119.5 W/m²
09:24 13.7 °C 9.7 °C 77 % 7 km/h (11 km/h) 0 mm0 mm 0 cm 6 min 116.6 W/m²
09:18 13.5 °C 9.3 °C 76 % 8 km/h (13 km/h) 0 mm0 mm 0 cm 3 min 82.5 W/m²
09:12 13.6 °C 9.6 °C 77 % 6 km/h (11 km/h) 0 mm0 mm 0 cm 4 min 75.7 W/m²
09:06 13.4 °C 10.2 °C 81 % 7 km/h (12 km/h) 0 mm0 mm 0 cm 4 min 77.6 W/m²
09:00 13.2 °C 9.6 °C 79 % 7 km/h (12 km/h) 0 mm0 mm 0 cm 0 min 40.2 W/m²
08:54 13 °C 9.4 °C 79 % 6 km/h (13 km/h) 0 mm0 mm 0 cm 0 min 34.2 W/m²
08:48 12.9 °C 9.3 °C 79 % 6 km/h (13 km/h) 0 mm0 mm 0 cm 0 min 34.8 W/m²
08:42 13 °C 9.4 °C 79 % 5 km/h (9 km/h) 0 mm0 mm 0 cm 0 min 34.5 W/m²
08:36 13 °C 9.4 °C 79 % 5 km/h (8 km/h) 0 mm0 mm 0 cm 0 min 27.4 W/m²
08:30 13 °C 9.4 °C 79 % 5 km/h (11 km/h) 0 mm0 mm 0 cm 0 min 26.1 W/m²
08:24 13 °C 9.4 °C 79 % 5 km/h (9 km/h) 0 mm0 mm 0 cm 0 min 23.4 W/m²
08:18 13.1 °C 9.5 °C 79 % 7 km/h (14 km/h) 0 mm0 mm 0 cm 0 min 18.7 W/m²
08:12 13 °C 9.4 °C 79 % 9 km/h (15 km/h) 0 mm0 mm 0 cm 0 min 9.8 W/m²
08:06 13.1 °C 9.5 °C 79 % 8 km/h (15 km/h) 0 mm0 mm 0 cm 0 min 6.9 W/m²
08:00 13.1 °C 9.5 °C 79 % 8 km/h (14 km/h) 0 mm0 mm 0 cm 0 min 7.6 W/m²
07:54 13.1 °C 9.7 °C 80 % 8 km/h (14 km/h) 0 mm0 mm 0 cm 0 min 3.9 W/m²
07:48 13 °C 9.6 °C 80 % 8 km/h (14 km/h) 0 mm0 mm 0 cm 0 min 0 W/m²
07:42 13 °C 9.6 °C 80 % 9 km/h (14 km/h) 0 mm0 mm 0 cm 0 min 0 W/m²
07:36 13 °C 9.6 °C 80 % 8 km/h (14 km/h) 0 mm0 mm 0 cm 0 min 0 W/m²
07:30 13.1 °C 9.7 °C 80 % 9 km/h (16 km/h) 0 mm0 mm 0 cm 0 min 0 W/m²
07:24 13.1 °C 9.7 °C 80 % 9 km/h (16 km/h) 0 mm0 mm 0 cm 0 min 0 W/m²
07:18 13.2 °C 9.6 °C 79 % 8 km/h (15 km/h) 0 mm0 mm 0 cm 0 min 0 W/m²
07:12 13.1 °C 9.5 °C 79 % 8 km/h (15 km/h) 0 mm0 mm 0 cm 0 min 0 W/m²
07:06 13.2 °C 9.6 °C 79 % 9 km/h (17 km/h) 0 mm0 mm 0 cm 0 min 0 W/m²
07:00 13.2 °C 9.6 °C 79 % 7 km/h (13 km/h) 0 mm0 mm 0 cm 0 min 0 W/m²
06:54 13.3 °C 9.7 °C 79 % 7 km/h (15 km/h) 0 mm0 mm 0 cm 0 min 0 W/m²
06:48 13.4 °C 9.6 °C 78 % 9 km/h (22 km/h) 0 mm0 mm 0 cm 0 min 0 W/m²
06:42 13.4 °C 9.6 °C 78 % 7 km/h (22 km/h) 0 mm0 mm 0 cm 0 min 0 W/m²
06:36 13.4 °C 9.4 °C 77 % 8 km/h (18 km/h) 0 mm0 mm 0 cm 0 min 0 W/m²
06:30 13.3 °C 9.4 °C 77 % 6 km/h (14 km/h) 0 mm0 mm 0 cm 0 min 0 W/m²
06:24 13.4 °C 9.1 °C 75 % 6 km/h (13 km/h) 0 mm0 mm 0 cm 0 min 0 W/m²
06:18 13.4 °C 8.9 °C 74 % 8 km/h (13 km/h) 0 mm0 mm 0 cm 0 min 0 W/m²
06:12 13.3 °C 8.4 °C 72 % 7 km/h (13 km/h) 0 mm0 mm 0 cm 0 min 0 W/m²
06:06 13.3 °C 7.5 °C 68 % 6 km/h (13 km/h) 0 mm0 mm 0 cm 0 min 0 W/m²
06:00 13.2 °C 7.4 °C 68 % 6 km/h (10 km/h) 0 mm0 mm 0 cm 0 min 0 W/m²
05:54 13.3 °C 7.5 °C 68 % 8 km/h (14 km/h) 0 mm0 mm 0 cm 0 min 0 W/m²
05:48 13.3 °C 7.5 °C 68 % 8 km/h (16 km/h) 0 mm0 mm 0 cm 0 min 0 W/m²
05:42 13.3 °C 7.5 °C 68 % 7 km/h (16 km/h) 0 mm0 mm 0 cm 0 min 0 W/m²
05:36 13.3 °C 7.7 °C 69 % 6 km/h (12 km/h) 0 mm0 mm 0 cm 0 min 0 W/m²
05:30 13.3 °C 7.7 °C 69 % 6 km/h (12 km/h) 0 mm0 mm 0 cm 0 min 0 W/m²
05:24 13.1 °C 7.7 °C 70 % 4 km/h (12 km/h) 0 mm0 mm 0 cm 0 min 0 W/m²
05:18 13.2 °C 7.6 °C 69 % 5 km/h (9 km/h) 0 mm0 mm 0 cm 0 min 0 W/m²
05:12 13.1 °C 7.5 °C 69 % 5 km/h (11 km/h) 0 mm0 mm 0 cm 0 min 0 W/m²
05:06 13.1 °C 7.5 °C 69 % 6 km/h (11 km/h) 0 mm0 mm 0 cm 0 min 0 W/m²
05:00 13.2 °C 7.4 °C 68 % 5 km/h (10 km/h) 0 mm0 mm 0 cm 0 min 0 W/m²
04:54 13.4 °C 7.6 °C 68 % 5 km/h (10 km/h) 0 mm0 mm 0 cm 0 min 0 W/m²
04:48 13.5 °C 7.5 °C 67 % 5 km/h (10 km/h) 0 mm0 mm 0 cm 0 min 0 W/m²
04:42 13.7 °C 7.9 °C 68 % 5 km/h (8 km/h) 0 mm0 mm 0 cm 0 min 0 W/m²
04:36 13.8 °C 8.2 °C 69 % 6 km/h (9 km/h) 0 mm0 mm 0 cm 0 min 0 W/m²
04:30 13.9 °C 8.5 °C 70 % 7 km/h (13 km/h) 0 mm0 mm 0 cm 0 min 0 W/m²
04:24 13.8 °C 8.4 °C 70 % 7 km/h (13 km/h) 0 mm0 mm 0 cm 0 min 0 W/m²
04:18 13.9 °C 8.5 °C 70 % 7 km/h (14 km/h) 0 mm0 mm 0 cm 0 min 0 W/m²
04:12 13.9 °C 8.5 °C 70 % 8 km/h (16 km/h) 0 mm0 mm 0 cm 0 min 0 W/m²
04:06 13.9 °C 8.5 °C 70 % 9 km/h (17 km/h) 0 mm0 mm 0 cm 0 min 0 W/m²
04:00 13.8 °C 8.4 °C 70 % 10 km/h (18 km/h) 0 mm0 mm 0 cm 0 min 0 W/m²
03:54 13.6 °C 8.4 °C 71 % 10 km/h (18 km/h) 0 mm0 mm 0 cm 0 min 0 W/m²
03:48 13.4 °C 8.2 °C 71 % 9 km/h (17 km/h) 0 mm0 mm 0 cm 0 min 0 W/m²
03:42 13.3 °C 8.4 °C 72 % 7 km/h (17 km/h) 0 mm0 mm 0 cm 0 min 0 W/m²
03:36 13.3 °C 8.4 °C 72 % 8 km/h (16 km/h) 0 mm0 mm 0 cm 0 min 0 W/m²
03:30 13.3 °C 8.6 °C 73 % 8 km/h (16 km/h) 0 mm0 mm 0 cm 0 min 0 W/m²
03:24 13 °C 8.3 °C 73 % 7 km/h (13 km/h) 0 mm0 mm 0 cm 0 min 0 W/m²
03:18 13.1 °C 8.4 °C 73 % 8 km/h (14 km/h) 0 mm0 mm 0 cm 0 min 0 W/m²
03:12 13 °C 8.5 °C 74 % 8 km/h (15 km/h) 0 mm0 mm 0 cm 0 min 0 W/m²
03:06 12.8 °C 8.3 °C 74 % 8 km/h (15 km/h) 0 mm0 mm 0 cm 0 min 0 W/m²
03:00 12.9 °C 8.4 °C 74 % 8 km/h (13 km/h) 0 mm0 mm 0 cm 0 min 0 W/m²
02:54 12.5 °C 8.2 °C 75 % 8 km/h (13 km/h) 0 mm0 mm 0 cm 0 min 0 W/m²
02:48 11.8 °C 7.1 °C 73 % 7 km/h (10 km/h) 0 mm0 mm 0 cm 0 min 0 W/m²
02:42 11.6 °C 6.7 °C 72 % 8 km/h (12 km/h) 0 mm0 mm 0 cm 0 min 0 W/m²
02:36 11.6 °C 6.1 °C 69 % 9 km/h (12 km/h) 0 mm0 mm 0 cm 0 min 0 W/m²
02:30 11.8 °C 5.9 °C 67 % 9 km/h (10 km/h) 0 mm0 mm 0 cm 0 min 0 W/m²
02:24 12.2 °C 5.8 °C 65 % 9 km/h (12 km/h) 0 mm0 mm 0 cm 0 min 0 W/m²
02:18 13.1 °C 6.4 °C 64 % 8 km/h (12 km/h) 0 mm0 mm 0 cm 0 min 0 W/m²
02:12 13.8 °C 7.1 °C 64 % 8 km/h (12 km/h) 0 mm0 mm 0 cm 0 min 0 W/m²
02:06 14.2 °C 7.3 °C 63 % 8 km/h (14 km/h) 0 mm0 mm 0 cm 0 min 0 W/m²
02:00 14.2 °C 7 °C 62 % 10 km/h (14 km/h) 0 mm0 mm 0 cm 0 min 0 W/m²
01:54 14.3 °C 7.1 °C 62 % 11 km/h (17 km/h) 0 mm0 mm 0 cm 0 min 0 W/m²
01:48 14.7 °C 7 °C 60 % 12 km/h (20 km/h) 0 mm0 mm 0 cm 0 min 0 W/m²
01:42 15.2 °C 7.5 °C 60 % 14 km/h (20 km/h) 0 mm0 mm 0 cm 0 min 0 W/m²
01:36 15.3 °C 7.3 °C 59 % 14 km/h (24 km/h) 0 mm0 mm 0 cm 0 min 0 W/m²
01:30 15.5 °C 7.5 °C 59 % 15 km/h (24 km/h) 0 mm0 mm 0 cm 0 min 0 W/m²
01:24 15.2 °C 7.7 °C 61 % 18 km/h (24 km/h) 0 mm0 mm 0 cm 0 min 0 W/m²
01:18 15 °C 8 °C 63 % 19 km/h (23 km/h) 0 mm0 mm 0 cm 0 min 0 W/m²
01:12 14.8 °C 8.1 °C 64 % 19 km/h (25 km/h) 0 mm0 mm 0 cm 0 min 0 W/m²
01:06 14.7 °C 7.7 °C 63 % 20 km/h (25 km/h) 0 mm0 mm 0 cm 0 min 0 W/m²
01:00 14.1 °C 7.4 °C 64 % 22 km/h (26 km/h) 0 mm0 mm 0 cm 0 min 0 W/m²
00:54 14.1 °C 7.2 °C 63 % 23 km/h (26 km/h) 0 mm0 mm 0 cm 0 min 0 W/m²
00:48 14 °C 7.1 °C 63 % 23 km/h (27 km/h) 0 mm0 mm 0 cm 0 min 0 W/m²
00:42 14.6 °C 7.6 °C 63 % 23 km/h (27 km/h) 0 mm0 mm 0 cm 0 min 0 W/m²
00:36 15.1 °C 8.3 °C 64 % 23 km/h (27 km/h) 0 mm0 mm 0 cm 0 min 0 W/m²
00:30 15.2 °C 8.9 °C 66 % 22 km/h (26 km/h) 0 mm0 mm 0 cm 0 min 0 W/m²
00:24 14.1 °C 9.1 °C 72 % 24 km/h (28 km/h) 0 mm0 mm 0 cm 0 min 0 W/m²
00:18 13.4 °C 8 °C 70 % 21 km/h (28 km/h) 0 mm0 mm 0 cm 0 min 0 W/m²
00:12 12.9 °C 6.7 °C 66 % 17 km/h (21 km/h) 0 mm0 mm 0 cm 0 min 0 W/m²
00:06 13.2 °C 6.5 °C 64 % 17 km/h (19 km/h) 0 mm0 mm 0 cm 0 min 0 W/m²
00:00 13 °C 6.3 °C 64 % 15 km/h (19 km/h) 0 mm0 mm 0 cm 0 min 0 W/m²

Données via Météo-France

Relevés météo à Chastreix

Cette page rassemble les observations de la station de Chastreix : température, humidité, vent, précipitations et pression atmosphérique. Les graphiques facilitent le suivi de la journée, tandis que le tableau donne accès aux mesures horaires et infra-horaires disponibles.

Pour replacer ces mesures dans leur contexte, consultez la climatologie de Chastreix ainsi que ses normales et records. Retrouvez aussi la carte des observations météo en temps réel.